Terminal Aerodrome Forecast
Issued by NWS

Home | Current Version | Previous Version | Text Only | Print | Product List | Glossary On
Versions: 1 2 3 4 5 6 7 8 9 10 11 12 13 14 15 16 17 18 19 20 21 22 23 24 25
000
FTUS44 KLZK 250520
TAFLIT
TAF
KLIT 250520Z 2506/2606 08005KT P6SM SKC
     FM251000 VRB04KT P6SM SCT250
     FM251400 32006KT P6SM SCT100 BKN250
     FM251700 33006KT P6SM VCSH SCT040 BKN100 OVC250
     FM252100 33008KT P6SM -TSRA BKN050CB OVC100=

USA.gov is the U.S. government's official web portal to all federal, state and local government web resources and services.